createdAt,value
2023-04-28T00:01:43.622Z,8.90
2023-04-28T00:04:33.941Z,8.80
2023-04-28T00:07:22.742Z,8.80
2023-04-28T00:10:12.064Z,8.70
2023-04-28T00:13:01.094Z,8.60
2023-04-28T00:15:53.065Z,8.60
2023-04-28T00:18:41.965Z,8.40
2023-04-28T00:21:32.150Z,8.40
2023-04-28T00:24:21.205Z,8.20
2023-04-28T00:27:10.789Z,8.10
2023-04-28T00:29:59.929Z,8.00
2023-04-28T00:32:48.753Z,7.90
2023-04-28T00:35:37.608Z,8.00
2023-04-28T00:38:27.764Z,8.10
2023-04-28T00:41:16.673Z,8.20
2023-04-28T00:44:05.679Z,8.20
2023-04-28T00:46:55.573Z,8.20
2023-04-28T00:49:44.418Z,8.10
2023-04-28T00:52:33.524Z,8.10
2023-04-28T00:55:26.036Z,8.20
2023-04-28T00:58:16.407Z,8.20
2023-04-28T01:01:05.750Z,8.10
2023-04-28T01:03:54.692Z,8.00
2023-04-28T01:06:45.911Z,7.90
2023-04-28T01:09:34.737Z,7.90
2023-04-28T01:12:25.152Z,7.80
2023-04-28T01:15:18.600Z,7.70
2023-04-28T01:18:08.374Z,7.60
2023-04-28T01:20:57.738Z,7.60
2023-04-28T01:23:49.073Z,7.50
2023-04-28T01:26:38.434Z,7.70
2023-04-28T01:29:28.315Z,7.60
2023-04-28T01:32:17.362Z,7.50
2023-04-28T01:35:06.956Z,7.60
2023-04-28T01:37:57.449Z,7.50
2023-04-28T01:40:47.729Z,7.50
2023-04-28T01:43:36.475Z,7.50
2023-04-28T01:46:25.410Z,7.40
2023-04-28T01:49:14.618Z,7.50
2023-04-28T01:52:03.523Z,7.40
2023-04-28T01:54:52.333Z,7.40
2023-04-28T01:57:42.786Z,7.50
2023-04-28T02:00:32.085Z,7.50
2023-04-28T02:03:21.190Z,7.50
2023-04-28T02:06:10.226Z,7.50
2023-04-28T02:08:58.886Z,7.50
2023-04-28T02:11:47.608Z,7.50
2023-04-28T02:14:37.700Z,7.30
2023-04-28T02:17:26.465Z,7.30
2023-04-28T02:20:15.563Z,7.20
2023-04-28T02:23:04.348Z,7.00
2023-04-28T02:26:03.810Z,7.10
2023-04-28T02:28:52.498Z,7.10
2023-04-28T02:31:42.615Z,7.00
2023-04-28T02:34:31.372Z,7.10
2023-04-28T02:37:20.756Z,7.00
2023-04-28T02:40:12.076Z,7.10
2023-04-28T02:43:01.171Z,7.10
2023-04-28T02:45:49.930Z,7.10
2023-04-28T02:48:40.928Z,7.10
2023-04-28T02:51:30.005Z,7.00
2023-04-28T02:54:27.383Z,6.90
2023-04-28T02:57:17.175Z,7.00
2023-04-28T03:00:07.187Z,6.90
2023-04-28T03:03:04.095Z,6.90
2023-04-28T03:05:54.148Z,6.90
2023-04-28T03:08:43.117Z,7.10
2023-04-28T03:11:32.236Z,7.20
2023-04-28T03:14:21.247Z,7.10
2023-04-28T03:17:10.185Z,7.30
2023-04-28T03:19:59.735Z,7.30
2023-04-28T03:22:49.970Z,7.20
2023-04-28T03:25:42.422Z,7.30
2023-04-28T03:28:31.242Z,7.20
2023-04-28T03:31:22.042Z,7.00
2023-04-28T03:34:10.632Z,6.90
2023-04-28T03:36:59.436Z,7.10
2023-04-28T03:39:53.422Z,7.20
2023-04-28T03:42:42.210Z,7.10
2023-04-28T03:45:33.655Z,7.10
2023-04-28T03:48:23.210Z,7.20
2023-04-28T03:51:12.934Z,7.20
2023-04-28T03:54:01.940Z,7.20
2023-04-28T03:56:52.815Z,7.30
2023-04-28T03:59:41.731Z,7.40
2023-04-28T04:02:32.355Z,7.60
2023-04-28T04:05:22.829Z,7.60
2023-04-28T04:08:11.876Z,7.60
2023-04-28T04:11:00.893Z,7.80
2023-04-28T04:13:50.874Z,7.80
2023-04-28T04:16:41.355Z,7.90
2023-04-28T04:19:30.300Z,7.90
2023-04-28T04:22:19.177Z,7.90
2023-04-28T04:25:08.542Z,7.80
2023-04-28T04:27:58.033Z,8.00
2023-04-28T04:30:48.303Z,8.10
2023-04-28T04:33:37.475Z,8.20
2023-04-28T04:36:27.643Z,8.20
2023-04-28T04:39:16.980Z,8.20
2023-04-28T04:42:22.608Z,8.30
2023-04-28T04:45:25.688Z,8.40
2023-04-28T04:48:16.334Z,8.50
2023-04-28T04:51:05.281Z,8.30
2023-04-28T04:53:54.129Z,8.40
2023-04-28T04:56:43.423Z,8.50
2023-04-28T04:59:34.296Z,8.60
2023-04-28T05:02:29.211Z,8.50
2023-04-28T05:05:21.933Z,8.70
2023-04-28T05:08:28.008Z,8.70
2023-04-28T05:11:16.997Z,8.90
2023-04-28T05:14:06.438Z,8.80
2023-04-28T05:16:55.499Z,8.90
2023-04-28T05:19:47.557Z,9.10
2023-04-28T05:22:38.631Z,9.20
2023-04-28T05:25:27.601Z,9.30
2023-04-28T05:28:16.968Z,9.50
2023-04-28T05:31:07.331Z,9.50
2023-04-28T05:33:56.332Z,9.60
2023-04-28T05:36:45.376Z,9.70
2023-04-28T05:39:36.587Z,9.90
2023-04-28T05:42:27.098Z,10.00
2023-04-28T05:45:16.378Z,10.10
2023-04-28T05:48:05.847Z,10.20
2023-04-28T05:50:54.639Z,10.20
2023-04-28T05:53:43.771Z,10.40
2023-04-28T05:56:34.907Z,10.30
2023-04-28T05:59:24.810Z,10.20
2023-04-28T06:02:14.277Z,10.30
2023-04-28T06:05:03.604Z,10.40
2023-04-28T06:07:55.146Z,10.60
2023-04-28T06:10:44.396Z,10.50
2023-04-28T06:13:34.540Z,10.60
2023-04-28T06:16:25.247Z,10.80
2023-04-28T06:19:18.943Z,10.60
2023-04-28T06:22:07.804Z,10.70
2023-04-28T06:24:57.567Z,10.80
2023-04-28T06:27:57.354Z,11.10
2023-04-28T06:30:51.499Z,11.40
2023-04-28T06:33:44.429Z,11.30
2023-04-28T06:36:33.871Z,11.40
2023-04-28T06:39:22.883Z,11.50
2023-04-28T06:42:12.005Z,11.80
2023-04-28T06:45:04.500Z,12.10
2023-04-28T06:47:55.846Z,12.60
2023-04-28T06:50:45.086Z,13.10
2023-04-28T06:53:34.103Z,13.50
2023-04-28T06:56:23.510Z,13.70
2023-04-28T06:59:13.031Z,13.80
2023-04-28T07:02:02.448Z,14.00
2023-04-28T07:04:52.859Z,14.20
2023-04-28T07:07:41.637Z,14.40
2023-04-28T07:10:30.356Z,14.40
2023-04-28T07:13:19.515Z,14.70
2023-04-28T07:16:08.382Z,14.60
2023-04-28T07:18:57.447Z,15.10
2023-04-28T07:21:47.533Z,14.80
2023-04-28T07:24:36.336Z,14.90
2023-04-28T07:27:25.092Z,15.20
2023-04-28T07:30:26.715Z,15.60
2023-04-28T07:33:16.336Z,15.80
2023-04-28T07:36:05.467Z,16.00
2023-04-28T07:38:55.684Z,15.60
2023-04-28T07:41:44.418Z,16.10
2023-04-28T07:44:34.072Z,16.40
2023-04-28T07:47:23.304Z,16.60
2023-04-28T07:50:13.370Z,16.40
2023-04-28T07:53:05.778Z,16.50
2023-04-28T07:55:56.353Z,16.40
2023-04-28T07:58:45.121Z,16.90
2023-04-28T08:01:34.280Z,16.00
2023-04-28T08:04:23.708Z,15.20
2023-04-28T08:07:15.347Z,15.60
2023-04-28T08:10:04.515Z,15.60
2023-04-28T08:12:54.906Z,15.00
2023-04-28T08:15:43.712Z,14.50
2023-04-28T08:18:32.458Z,15.70
2023-04-28T08:21:21.347Z,14.80
2023-04-28T08:24:10.937Z,14.20
2023-04-28T08:27:00.878Z,13.90
2023-04-28T08:29:51.434Z,13.90
2023-04-28T08:32:40.085Z,13.80
2023-04-28T08:35:29.249Z,13.90
2023-04-28T08:38:18.404Z,13.80
2023-04-28T08:41:07.479Z,13.80
2023-04-28T08:43:56.487Z,13.90
2023-04-28T08:46:50.948Z,14.00
2023-04-28T08:49:41.630Z,14.30
2023-04-28T08:52:31.456Z,14.00
2023-04-28T08:55:20.920Z,14.70
2023-04-28T08:58:10.348Z,16.50
2023-04-28T09:01:04.697Z,16.70
2023-04-28T09:03:56.126Z,17.20
2023-04-28T09:06:45.623Z,17.30
2023-04-28T09:09:39.353Z,18.40
2023-04-28T09:12:38.700Z,18.90
2023-04-28T09:15:30.596Z,19.20
2023-04-28T09:18:20.730Z,19.50
2023-04-28T09:21:12.010Z,19.90
2023-04-28T09:24:00.926Z,20.00
2023-04-28T09:26:53.527Z,20.50
2023-04-28T09:29:54.820Z,21.00
2023-04-28T09:32:44.105Z,20.90
2023-04-28T09:35:41.046Z,21.50
2023-04-28T09:38:31.201Z,22.00
2023-04-28T09:41:19.909Z,21.70
2023-04-28T09:44:16.697Z,22.40
2023-04-28T09:47:22.891Z,22.70
2023-04-28T09:50:15.159Z,23.40
2023-04-28T09:53:04.297Z,23.90
2023-04-28T09:55:56.984Z,23.40
2023-04-28T09:58:47.421Z,24.50
2023-04-28T10:01:41.540Z,23.40
2023-04-28T10:04:33.952Z,24.50
2023-04-28T10:07:23.685Z,25.30
2023-04-28T10:10:17.111Z,25.00
2023-04-28T10:13:08.021Z,24.60
2023-04-28T10:15:58.680Z,26.00
2023-04-28T10:18:48.046Z,26.60
2023-04-28T10:21:44.478Z,26.70
2023-04-28T10:24:34.662Z,26.40
2023-04-28T10:27:30.395Z,24.80
2023-04-28T10:30:27.988Z,25.00
2023-04-28T10:33:32.991Z,25.60
2023-04-28T10:36:48.262Z,26.90
2023-04-28T10:39:37.201Z,28.30
2023-04-28T10:42:53.605Z,27.90
2023-04-28T10:46:15.412Z,27.30
2023-04-28T10:49:04.339Z,24.70
2023-04-28T10:51:53.192Z,24.30
2023-04-28T10:54:41.930Z,26.00
2023-04-28T10:57:30.573Z,26.90
2023-04-28T11:00:30.594Z,26.30
2023-04-28T11:03:51.267Z,27.10
2023-04-28T11:06:42.097Z,28.50
2023-04-28T11:09:49.938Z,23.90
2023-04-28T11:12:58.525Z,24.20
2023-04-28T11:16:04.460Z,22.20
2023-04-28T11:18:57.172Z,20.60
2023-04-28T11:21:46.256Z,21.20
2023-04-28T11:24:35.077Z,22.30
2023-04-28T11:27:26.153Z,22.30
2023-04-28T11:30:25.409Z,22.00
2023-04-28T11:33:15.031Z,25.30
2023-04-28T11:36:06.460Z,28.00
2023-04-28T11:38:57.353Z,29.00
2023-04-28T11:41:46.868Z,29.60
2023-04-28T11:44:35.495Z,30.60
2023-04-28T11:47:32.636Z,29.70
2023-04-28T11:50:39.383Z,31.10
2023-04-28T11:56:38.991Z,29.70
2023-04-28T11:59:29.390Z,29.50
2023-04-28T12:02:26.082Z,30.80
2023-04-28T12:05:14.978Z,31.60
2023-04-28T12:08:04.297Z,33.50
2023-04-28T12:11:13.075Z,32.10
2023-04-28T12:14:10.585Z,30.80
2023-04-28T12:16:59.555Z,31.80
2023-04-28T12:19:48.426Z,34.10
2023-04-28T12:22:46.977Z,29.40
2023-04-28T12:25:44.582Z,25.90
2023-04-28T12:28:40.473Z,23.00
2023-04-28T12:34:20.199Z,20.10
2023-04-28T12:37:09.176Z,20.00
2023-04-28T12:39:58.179Z,19.20
2023-04-28T12:42:47.340Z,18.80
2023-04-28T12:45:38.737Z,18.90
2023-04-28T12:48:29.938Z,18.90
2023-04-28T12:51:18.788Z,18.80
2023-04-28T12:54:07.939Z,18.60
2023-04-28T12:56:57.025Z,18.50
2023-04-28T12:59:47.259Z,18.50
2023-04-28T13:02:36.175Z,18.00
2023-04-28T13:05:27.082Z,18.00
2023-04-28T13:08:15.828Z,17.90
2023-04-28T13:11:16.211Z,17.80
2023-04-28T13:14:11.535Z,17.80
2023-04-28T13:17:00.357Z,17.70
2023-04-28T13:19:50.038Z,17.30
2023-04-28T13:22:40.545Z,17.50
2023-04-28T13:25:29.277Z,17.70
2023-04-28T13:28:18.336Z,17.60
2023-04-28T13:31:07.131Z,17.80
2023-04-28T13:33:55.971Z,17.60
2023-04-28T13:36:45.852Z,17.50
2023-04-28T13:39:36.255Z,17.40
2023-04-28T13:42:25.024Z,17.40
2023-04-28T13:48:06.864Z,16.00
2023-04-28T13:50:55.863Z,16.50
2023-04-28T13:53:44.616Z,16.80
2023-04-28T13:56:34.845Z,16.80
2023-04-28T13:59:23.622Z,16.50
2023-04-28T14:02:12.580Z,16.70
2023-04-28T14:05:01.512Z,16.90
2023-04-28T14:07:50.183Z,17.00
2023-04-28T14:10:39.239Z,17.30
2023-04-28T14:13:29.903Z,17.40
2023-04-28T14:16:19.104Z,17.20
2023-04-28T14:19:09.072Z,17.10
2023-04-28T14:21:57.972Z,17.20
2023-04-28T14:24:47.104Z,17.30
2023-04-28T14:27:36.072Z,17.20
2023-04-28T14:30:31.148Z,17.20
2023-04-28T14:33:19.801Z,17.10
2023-04-28T14:36:08.819Z,17.30
2023-04-28T14:39:02.466Z,17.40
2023-04-28T14:41:51.736Z,17.20
2023-04-28T14:44:40.565Z,17.10
2023-04-28T14:47:30.949Z,16.90
2023-04-28T14:50:19.676Z,16.80
2023-04-28T14:53:08.505Z,16.80
2023-04-28T14:56:07.592Z,16.70
2023-04-28T14:59:06.978Z,16.60
2023-04-28T15:01:56.726Z,16.60
2023-04-28T15:04:47.837Z,16.60
2023-04-28T15:07:37.557Z,16.50
2023-04-28T15:10:27.113Z,16.40
2023-04-28T15:13:15.923Z,16.50
2023-04-28T15:16:06.173Z,16.50
2023-04-28T15:18:54.857Z,16.70
2023-04-28T15:21:45.376Z,16.50
2023-04-28T15:24:33.972Z,16.40
2023-04-28T15:27:23.258Z,16.50
2023-04-28T15:30:13.036Z,16.60
2023-04-28T15:33:02.124Z,16.40
2023-04-28T15:35:53.729Z,16.40
2023-04-28T15:38:45.400Z,16.50
2023-04-28T15:41:35.244Z,16.40
2023-04-28T15:44:24.764Z,16.30
2023-04-28T15:47:14.260Z,16.20
2023-04-28T15:50:03.451Z,16.00
2023-04-28T15:52:52.407Z,16.00
2023-04-28T15:55:42.918Z,15.90
2023-04-28T15:58:32.149Z,15.90
2023-04-28T16:01:22.155Z,16.00
2023-04-28T16:04:14.531Z,15.90
2023-04-28T16:07:04.653Z,15.80
2023-04-28T16:09:54.213Z,15.80
2023-04-28T16:12:45.283Z,15.80
2023-04-28T16:15:34.402Z,15.80
2023-04-28T16:18:23.248Z,15.80
2023-04-28T16:22:27.288Z,15.70
2023-04-28T16:25:16.239Z,15.70
2023-04-28T16:28:07.305Z,15.50
2023-04-28T16:30:56.715Z,15.60
2023-04-28T16:33:45.557Z,15.40
2023-04-28T16:36:34.522Z,15.50
2023-04-28T16:39:23.400Z,15.50
2023-04-28T16:42:12.524Z,15.50
2023-04-28T16:45:03.465Z,15.40
2023-04-28T16:47:52.990Z,15.30
2023-04-28T16:50:42.050Z,15.30
2023-04-28T16:53:31.018Z,15.30
2023-04-28T16:56:19.864Z,15.20
2023-04-28T16:59:08.628Z,15.30
2023-04-28T17:01:58.963Z,15.30
2023-04-28T17:04:48.132Z,15.20
2023-04-28T17:07:37.146Z,15.10
2023-04-28T17:10:26.435Z,15.00
2023-04-28T17:13:15.125Z,15.00
2023-04-28T17:16:04.323Z,14.90
2023-04-28T17:18:55.170Z,14.80
2023-04-28T17:21:43.878Z,14.80
2023-04-28T17:24:32.789Z,14.80
2023-04-28T17:27:21.614Z,14.70
2023-04-28T17:30:13.396Z,14.70
2023-04-28T17:33:02.596Z,14.70
2023-04-28T17:35:52.873Z,14.50
2023-04-28T17:38:41.677Z,14.50
2023-04-28T17:41:30.970Z,14.40
2023-04-28T17:44:19.619Z,14.40
2023-04-28T17:47:08.577Z,14.30
2023-04-28T17:49:58.018Z,14.30
2023-04-28T17:52:49.225Z,14.20
2023-04-28T17:55:39.702Z,14.20
2023-04-28T17:58:29.230Z,14.30
2023-04-28T18:01:18.539Z,14.20
2023-04-28T18:04:07.824Z,14.20
2023-04-28T18:06:56.640Z,14.20
2023-04-28T18:09:46.924Z,14.10
2023-04-28T18:12:35.592Z,14.00
2023-04-28T18:15:24.640Z,13.90
2023-04-28T18:18:13.847Z,13.90
2023-04-28T18:21:02.775Z,13.80
2023-04-28T18:23:51.606Z,13.80
2023-04-28T18:26:42.182Z,13.80
2023-04-28T18:29:31.184Z,13.70
2023-04-28T18:32:19.972Z,13.70
2023-04-28T18:35:09.281Z,13.70
2023-04-28T18:37:58.247Z,13.60
2023-04-28T18:40:47.017Z,13.50
2023-04-28T18:43:38.177Z,13.60
2023-04-28T18:46:27.454Z,13.50
2023-04-28T18:49:16.176Z,13.50
2023-04-28T18:52:05.511Z,13.50
2023-04-28T18:54:54.373Z,13.40
2023-04-28T18:57:43.385Z,13.30
2023-04-28T19:00:37.140Z,13.30
2023-04-28T19:03:26.433Z,13.30
2023-04-28T19:06:16.275Z,13.30
2023-04-28T19:09:05.372Z,13.30
2023-04-28T19:11:54.199Z,13.10
2023-04-28T19:14:43.130Z,13.00
2023-04-28T19:17:33.528Z,13.10
2023-04-28T19:20:22.953Z,13.00
2023-04-28T19:23:11.790Z,13.10
2023-04-28T19:26:02.205Z,13.10
2023-04-28T19:28:51.035Z,12.90
2023-04-28T19:31:46.177Z,12.80
2023-04-28T19:34:38.821Z,12.80
2023-04-28T19:37:28.151Z,12.70
2023-04-28T19:40:17.697Z,12.70
2023-04-28T19:43:08.625Z,12.50
2023-04-28T19:45:58.160Z,12.50
2023-04-28T19:48:47.406Z,12.50
2023-04-28T19:51:40.383Z,12.50
2023-04-28T19:54:29.385Z,12.50
2023-04-28T19:57:19.284Z,12.60
2023-04-28T20:00:10.382Z,12.50
2023-04-28T20:02:59.338Z,12.40
2023-04-28T20:05:48.136Z,12.40
2023-04-28T20:08:38.553Z,12.20
2023-04-28T20:11:27.570Z,12.20
2023-04-28T20:14:16.273Z,12.10
2023-04-28T20:17:07.167Z,12.10
2023-04-28T20:19:55.996Z,12.20
2023-04-28T20:22:44.669Z,12.00
2023-04-28T20:25:38.414Z,12.00
2023-04-28T20:28:27.731Z,12.00
2023-04-28T20:31:16.857Z,12.00
2023-04-28T20:34:05.723Z,12.00
2023-04-28T20:36:55.939Z,11.90
2023-04-28T20:39:44.966Z,11.90
2023-04-28T20:42:35.377Z,11.90
2023-04-28T20:45:24.485Z,11.80
2023-04-28T20:48:13.544Z,11.70
2023-04-28T20:51:03.833Z,11.70
2023-04-28T20:53:52.538Z,11.70
2023-04-28T20:56:42.100Z,11.60
2023-04-28T20:59:33.145Z,11.50
2023-04-28T21:02:22.001Z,11.40
2023-04-28T21:05:11.284Z,11.50
2023-04-28T21:08:00.420Z,11.50
2023-04-28T21:10:49.678Z,11.40
2023-04-28T21:13:39.767Z,11.30
2023-04-28T21:16:29.928Z,11.30
2023-04-28T21:19:18.796Z,11.30
2023-04-28T21:22:07.509Z,11.20
2023-04-28T21:24:59.967Z,11.20
2023-04-28T21:27:49.376Z,11.30
2023-04-28T21:30:38.615Z,11.40
2023-04-28T21:33:29.178Z,11.20
2023-04-28T21:36:17.809Z,11.10
2023-04-28T21:39:07.731Z,11.20
2023-04-28T21:41:56.528Z,10.50
2023-04-28T21:44:45.690Z,11.10
2023-04-28T21:47:34.558Z,11.00
2023-04-28T21:50:24.932Z,10.90
2023-04-28T21:53:13.567Z,11.00
2023-04-28T21:56:02.459Z,11.00
2023-04-28T21:58:52.075Z,10.90
2023-04-28T22:01:41.738Z,10.90
2023-04-28T22:04:31.362Z,10.90
2023-04-28T22:07:21.669Z,10.80
2023-04-28T22:10:11.642Z,10.70
2023-04-28T22:13:00.823Z,10.80
2023-04-28T22:15:49.876Z,10.70
2023-04-28T22:18:39.919Z,10.70
2023-04-28T22:21:28.525Z,10.60
2023-04-28T22:24:18.580Z,10.70
2023-04-28T22:27:07.646Z,10.60
2023-04-28T22:29:56.293Z,10.50
2023-04-28T22:32:47.121Z,10.60
2023-04-28T22:35:36.914Z,10.50
2023-04-28T22:38:25.812Z,10.40
2023-04-28T22:41:16.266Z,10.30
2023-04-28T22:44:05.300Z,10.20
2023-04-28T22:46:54.295Z,10.30
2023-04-28T22:49:43.546Z,10.30
2023-04-28T22:52:32.890Z,10.20
2023-04-28T22:55:22.127Z,10.10
2023-04-28T22:58:12.329Z,10.10
2023-04-28T23:01:04.287Z,10.00
2023-04-28T23:03:53.192Z,10.10
2023-04-28T23:06:42.056Z,10.00
2023-04-28T23:09:31.919Z,9.90
2023-04-28T23:12:22.359Z,10.00
2023-04-28T23:15:12.881Z,10.00
2023-04-28T23:18:02.201Z,10.00
2023-04-28T23:20:54.922Z,9.90
2023-04-28T23:23:43.678Z,9.90
2023-04-28T23:26:32.605Z,9.90
2023-04-28T23:29:21.650Z,9.80
2023-04-28T23:32:12.700Z,9.90
2023-04-28T23:35:02.760Z,9.80
2023-04-28T23:37:51.411Z,9.80
2023-04-28T23:40:41.365Z,9.80
2023-04-28T23:43:29.989Z,9.80
2023-04-28T23:46:18.906Z,9.80
2023-04-28T23:49:09.517Z,9.80
2023-04-28T23:51:59.403Z,9.70
2023-04-28T23:54:48.388Z,9.60
